首页
METAR-TAF:

METAR-TAF

机场 :

Cerklje ob Krki, 斯洛文尼亚

纬度: 45-53-59N, 经度: 15-30-55E, 海拔: 157米

当前天气观测

该预报发布于29分钟前的04:30 UTC
静风
温度 6°C
湿度 93%
气压 997 hPa
能见度10公里或以上

METAR: LJCE 260430Z AUTO 00000KT 9999 FEW047/// SCT053/// 06/05 Q0997

时间: 05:59 (04:59 UTC)

预报

该预报发布于2小时和59分钟前的02:00 UTC
预报有效从26日的 03点(UTC)到 26日的 12点(UTC)
风速5节,风向西转西南
能见度10公里或以上
散云层高于4500英尺
多云层高于8000英尺
短暂存在
从 26日的 03点(UTC)到 26日的 12点(UTC)
能見度: 5000
多云层高于3500英尺, 塔状积云.
阴天层高于5000英尺
阵雨
成为
从 26日的 07点(UTC)到 26日的 09点(UTC)
风速5节,风向
多云层高于4500英尺
几率 30% :
短暂存在
从 26日的 09点(UTC)到 26日的 12点(UTC)
风速15节,风向东北,有时为25节阵风
能見度: 3000
多云层高于2000英尺, 积雨云.
阴天层高于3000英尺
雷暴, 小冰雹或雪球

TAF: LJCE 260200Z 2603/2612 24005KT 9999 SCT045 BKN080 TEMPO 2603/2612 5000 SHRA BKN035TCU OVC050 BECMG 2607/2609 08005KT BKN045 PROB30 TEMPO 2609/2612 05015G25KT 3000 TSGS BKN020CB OVC030

超过4000个机场的气象观测和天气预报(METAR&TAF报告)。

可查询的气象台以黄色和红色小点在地图上表示。

将鼠标移到小点上方,可查看气象台名称。

然后点击查看天气观测和预报。

如需切换地图:点击带黑十字的绿色按钮放大地图;点击带横线的绿色按钮缩小地图;或者点击绿色箭头查看邻近地区的地图。


METAR-TAF: